Terminal Aerodrome Forecast
Issued by NWS Sterling, VA

Home | Current Version | Previous Version | Text Only | Print | Product List | Glossary On
Versions: 1 2 3 4 5 6 7 8 9 10 11 12 13 14 15 16 17 18 19 20 21
269
FTUS41 KLWX 250541
TAFBWI
TAF
KBWI 250541Z 2506/2612 VRB03KT P6SM FEW250
     FM251700 08006KT P6SM FEW060 FEW250
     FM260000 12006KT P6SM FEW060 FEW250
     FM260800 05004KT P6SM FEW040 SCT200=

USA.gov is the U.S. government's official web portal to all federal, state and local government web resources and services.